createdAt,value
2018-08-28T00:01:25.847Z,17.20
2018-08-28T00:03:53.239Z,17.20
2018-08-28T00:06:20.579Z,17.20
2018-08-28T00:08:48.052Z,17.10
2018-08-28T00:11:15.523Z,17.10
2018-08-28T00:13:42.699Z,17.00
2018-08-28T00:16:09.881Z,17.00
2018-08-28T00:18:37.068Z,16.90
2018-08-28T00:21:04.255Z,16.90
2018-08-28T00:23:31.423Z,16.80
2018-08-28T00:25:58.581Z,16.70
2018-08-28T00:28:25.756Z,16.50
2018-08-28T00:30:53.076Z,16.40
2018-08-28T00:33:20.253Z,16.30
2018-08-28T00:35:47.432Z,16.30
2018-08-28T00:38:14.591Z,16.40
2018-08-28T00:40:41.763Z,16.40
2018-08-28T00:43:08.943Z,16.40
2018-08-28T00:45:36.131Z,16.40
2018-08-28T00:48:03.299Z,16.50
2018-08-28T00:50:30.523Z,16.50
2018-08-28T00:52:57.719Z,16.40
2018-08-28T00:55:25.068Z,16.30
2018-08-28T00:57:53.045Z,16.30
2018-08-28T01:00:20.237Z,16.10
2018-08-28T01:02:47.423Z,16.10
2018-08-28T01:05:14.739Z,16.00
2018-08-28T01:07:41.916Z,15.90
2018-08-28T01:10:09.099Z,15.70
2018-08-28T01:12:36.327Z,15.60
2018-08-28T01:15:03.764Z,15.50
2018-08-28T01:17:30.924Z,15.50
2018-08-28T01:19:58.103Z,15.30
2018-08-28T01:22:25.271Z,15.20
2018-08-28T01:24:52.457Z,15.20
2018-08-28T01:27:19.742Z,15.10
2018-08-28T01:29:46.924Z,15.00
2018-08-28T01:32:14.083Z,14.90
2018-08-28T01:34:41.524Z,14.80
2018-08-28T01:37:08.700Z,14.80
2018-08-28T01:39:35.916Z,14.70
2018-08-28T01:42:03.113Z,14.70
2018-08-28T01:44:30.283Z,14.60
2018-08-28T01:46:57.476Z,14.50
2018-08-28T01:49:24.640Z,14.40
2018-08-28T01:51:51.843Z,14.40
2018-08-28T01:54:18.993Z,14.40
2018-08-28T01:56:46.140Z,14.30
2018-08-28T01:59:13.291Z,14.30
2018-08-28T02:01:40.428Z,14.20
2018-08-28T02:04:07.591Z,14.20
2018-08-28T02:06:34.731Z,14.20
2018-08-28T02:09:01.924Z,14.10
2018-08-28T02:11:29.088Z,14.10
2018-08-28T02:13:56.227Z,14.00
2018-08-28T02:16:23.379Z,14.00
2018-08-28T02:18:50.580Z,13.90
2018-08-28T02:21:17.744Z,13.90
2018-08-28T02:23:44.917Z,13.80
2018-08-28T02:26:12.068Z,13.80
2018-08-28T02:28:39.380Z,13.80
2018-08-28T02:31:06.552Z,13.70
2018-08-28T02:33:33.782Z,13.60
2018-08-28T02:36:01.220Z,13.60
2018-08-28T02:38:28.404Z,13.60
2018-08-28T02:40:55.581Z,13.50
2018-08-28T02:43:22.767Z,13.50
2018-08-28T02:45:49.948Z,13.50
2018-08-28T02:48:17.251Z,13.40
2018-08-28T02:50:44.415Z,13.30
2018-08-28T02:53:11.603Z,13.30
2018-08-28T02:55:38.774Z,13.30
2018-08-28T02:58:05.992Z,13.30
2018-08-28T03:00:33.160Z,13.30
2018-08-28T03:03:00.391Z,13.30
2018-08-28T03:05:27.530Z,13.30
2018-08-28T03:07:54.696Z,13.20
2018-08-28T03:10:21.920Z,13.20
2018-08-28T03:12:49.096Z,13.30
2018-08-28T03:15:16.288Z,13.30
2018-08-28T03:17:43.465Z,13.30
2018-08-28T03:20:10.642Z,13.30
2018-08-28T03:22:37.822Z,13.30
2018-08-28T03:25:04.995Z,13.30
2018-08-28T03:27:32.295Z,13.30
2018-08-28T03:29:59.464Z,13.30
2018-08-28T03:32:26.636Z,13.30
2018-08-28T03:34:53.820Z,13.30
2018-08-28T03:37:21.072Z,13.30
2018-08-28T03:39:48.236Z,13.30
2018-08-28T03:42:15.424Z,13.30
2018-08-28T03:44:42.637Z,13.40
2018-08-28T03:47:09.812Z,13.40
2018-08-28T03:49:37.007Z,13.50
2018-08-28T03:52:04.210Z,13.50
2018-08-28T03:54:31.438Z,13.50
2018-08-28T03:56:58.692Z,13.50
2018-08-28T03:59:25.896Z,13.50
2018-08-28T04:01:53.085Z,13.40
2018-08-28T04:04:20.277Z,13.40
2018-08-28T04:06:47.523Z,13.20
2018-08-28T04:09:14.744Z,13.20
2018-08-28T04:11:41.927Z,13.10
2018-08-28T04:14:09.127Z,13.10
2018-08-28T04:16:36.358Z,13.10
2018-08-28T04:19:05.217Z,13.10
2018-08-28T04:21:32.408Z,13.10
2018-08-28T04:23:59.584Z,13.10
2018-08-28T04:26:26.748Z,13.00
2018-08-28T04:28:53.950Z,13.00
2018-08-28T04:31:21.124Z,13.00
2018-08-28T04:33:48.319Z,13.00
2018-08-28T04:36:15.491Z,12.90
2018-08-28T04:38:42.734Z,12.90
2018-08-28T04:41:10.028Z,12.90
2018-08-28T04:43:37.237Z,12.90
2018-08-28T04:46:04.440Z,12.90
2018-08-28T04:48:31.686Z,12.90
2018-08-28T04:50:58.820Z,12.90
2018-08-28T04:53:25.995Z,12.90
2018-08-28T04:55:53.308Z,12.90
2018-08-28T04:58:20.486Z,13.00
2018-08-28T05:00:47.665Z,13.00
2018-08-28T05:03:14.848Z,13.10
2018-08-28T05:05:42.028Z,13.10
2018-08-28T05:08:09.218Z,13.30
2018-08-28T05:10:36.387Z,13.30
2018-08-28T05:13:03.575Z,13.40
2018-08-28T05:15:30.740Z,13.40
2018-08-28T05:17:57.913Z,13.50
2018-08-28T05:20:25.089Z,13.50
2018-08-28T05:22:52.266Z,13.60
2018-08-28T05:25:19.444Z,13.60
2018-08-28T05:27:46.966Z,13.70
2018-08-28T05:30:14.159Z,13.70
2018-08-28T05:32:41.308Z,13.70
2018-08-28T05:35:08.505Z,13.80
2018-08-28T05:37:35.787Z,13.90
2018-08-28T05:40:02.979Z,14.00
2018-08-28T05:42:30.128Z,14.10
2018-08-28T05:44:57.299Z,14.20
2018-08-28T05:47:24.450Z,14.30
2018-08-28T05:49:51.599Z,14.40
2018-08-28T05:52:18.748Z,14.50
2018-08-28T05:54:45.895Z,14.60
2018-08-28T05:57:13.044Z,14.80
2018-08-28T05:59:40.213Z,14.80
2018-08-28T06:02:07.387Z,14.90
2018-08-28T06:04:34.537Z,15.10
2018-08-28T06:07:01.702Z,15.20
2018-08-28T06:09:28.851Z,15.30
2018-08-28T06:11:56.012Z,15.40
2018-08-28T06:14:23.164Z,15.50
2018-08-28T06:16:50.303Z,15.60
2018-08-28T06:19:17.448Z,15.70
2018-08-28T06:21:44.809Z,15.80
2018-08-28T06:24:11.987Z,16.00
2018-08-28T06:26:39.444Z,16.10
2018-08-28T06:29:06.604Z,16.30
2018-08-28T06:31:33.757Z,16.50
2018-08-28T06:34:00.977Z,16.70
2018-08-28T06:36:28.073Z,17.00
2018-08-28T06:38:55.256Z,17.00
2018-08-28T06:41:22.403Z,17.30
2018-08-28T06:43:49.612Z,17.80
2018-08-28T06:46:16.743Z,18.70
2018-08-28T06:48:43.884Z,19.30
2018-08-28T06:51:11.052Z,19.70
2018-08-28T06:53:38.208Z,20.00
2018-08-28T06:56:05.393Z,20.40
2018-08-28T06:58:32.547Z,20.70
2018-08-28T07:00:59.707Z,21.20
2018-08-28T07:03:26.859Z,21.20
2018-08-28T07:05:54.027Z,21.80
2018-08-28T07:08:21.200Z,22.50
2018-08-28T07:10:48.371Z,22.70
2018-08-28T07:13:15.516Z,22.60
2018-08-28T07:15:42.673Z,23.00
2018-08-28T07:18:09.820Z,23.10
2018-08-28T07:20:36.967Z,23.90
2018-08-28T07:23:04.236Z,24.00
2018-08-28T07:25:31.465Z,23.60
2018-08-28T07:27:58.591Z,23.70
2018-08-28T07:30:25.740Z,24.20
2018-08-28T07:32:52.879Z,24.60
2018-08-28T07:35:20.048Z,24.50
2018-08-28T07:37:47.204Z,24.60
2018-08-28T07:40:14.382Z,24.60
2018-08-28T07:42:41.555Z,24.60
2018-08-28T07:45:08.736Z,24.70
2018-08-28T07:47:35.884Z,24.50
2018-08-28T07:50:03.099Z,24.10
2018-08-28T07:52:30.291Z,24.20
2018-08-28T07:54:57.431Z,24.70
2018-08-28T07:57:24.580Z,25.30
2018-08-28T07:59:51.724Z,25.40
2018-08-28T08:02:18.883Z,25.80
2018-08-28T08:04:46.031Z,25.40
2018-08-28T08:07:13.174Z,24.60
2018-08-28T08:09:40.335Z,25.10
2018-08-28T08:12:07.499Z,25.60
2018-08-28T08:14:34.639Z,25.40
2018-08-28T08:17:02.073Z,26.00
2018-08-28T08:19:29.228Z,25.70
2018-08-28T08:21:56.412Z,26.10
2018-08-28T08:24:23.569Z,26.90
2018-08-28T08:26:50.716Z,27.30
2018-08-28T08:29:17.857Z,27.60
2018-08-28T08:31:45.039Z,27.70
2018-08-28T08:34:12.204Z,27.00
2018-08-28T08:36:39.343Z,27.20
2018-08-28T08:39:07.846Z,27.00
2018-08-28T08:41:35.029Z,27.90
2018-08-28T08:44:02.290Z,28.30
2018-08-28T08:46:29.433Z,28.30
2018-08-28T08:48:56.574Z,27.60
2018-08-28T08:51:23.727Z,27.70
2018-08-28T08:53:50.897Z,28.40
2018-08-28T08:56:18.042Z,28.70
2018-08-28T08:58:45.191Z,27.60
2018-08-28T09:01:12.376Z,28.00
2018-08-28T09:03:39.545Z,28.90
2018-08-28T09:06:06.761Z,28.40
2018-08-28T09:08:33.914Z,27.80
2018-08-28T09:11:01.132Z,28.30
2018-08-28T09:13:28.371Z,29.10
2018-08-28T09:15:55.492Z,29.40
2018-08-28T09:18:22.640Z,29.10
2018-08-28T09:20:49.811Z,29.80
2018-08-28T09:23:16.971Z,30.50
2018-08-28T09:25:44.112Z,30.00
2018-08-28T09:28:11.263Z,29.70
2018-08-28T09:30:38.409Z,30.40
2018-08-28T09:33:05.613Z,29.70
2018-08-28T09:35:32.785Z,29.40
2018-08-28T09:37:59.952Z,29.50
2018-08-28T09:40:27.119Z,29.50
2018-08-28T09:42:54.299Z,29.50
2018-08-28T09:45:21.478Z,28.90
2018-08-28T09:47:48.683Z,29.50
2018-08-28T09:50:15.875Z,29.60
2018-08-28T09:52:43.052Z,30.30
2018-08-28T09:55:10.289Z,29.80
2018-08-28T09:57:37.428Z,30.20
2018-08-28T10:00:05.738Z,29.30
2018-08-28T10:02:32.936Z,29.30
2018-08-28T10:05:00.123Z,29.50
2018-08-28T10:07:27.297Z,30.10
2018-08-28T10:09:54.464Z,30.70
2018-08-28T10:12:21.631Z,31.40
2018-08-28T10:14:48.810Z,31.90
2018-08-28T10:17:15.999Z,31.90
2018-08-28T10:19:43.228Z,30.90
2018-08-28T10:22:10.411Z,30.60
2018-08-28T10:24:37.589Z,30.10
2018-08-28T10:27:04.759Z,30.90
2018-08-28T10:29:31.923Z,30.80
2018-08-28T10:31:59.095Z,30.60
2018-08-28T10:34:26.269Z,30.70
2018-08-28T10:36:53.411Z,30.40
2018-08-28T10:39:20.584Z,30.40
2018-08-28T10:41:47.737Z,30.60
2018-08-28T10:44:14.889Z,31.00
2018-08-28T10:46:42.142Z,31.30
2018-08-28T10:49:09.196Z,31.20
2018-08-28T10:51:36.375Z,30.60
2018-08-28T10:54:03.516Z,30.60
2018-08-28T10:56:30.689Z,30.30
2018-08-28T10:58:57.842Z,29.90
2018-08-28T11:01:24.992Z,29.90
2018-08-28T11:03:52.140Z,30.40
2018-08-28T11:06:19.427Z,30.50
2018-08-28T11:08:46.622Z,30.90
2018-08-28T11:11:13.731Z,30.90
2018-08-28T11:13:40.874Z,30.20
2018-08-28T11:16:08.080Z,29.80
2018-08-28T11:18:35.209Z,29.70
2018-08-28T11:21:02.373Z,29.00
2018-08-28T11:23:29.536Z,29.00
2018-08-28T11:25:56.684Z,28.70
2018-08-28T11:28:23.824Z,27.90
2018-08-28T11:30:50.983Z,28.50
2018-08-28T11:33:18.212Z,28.50
2018-08-28T11:35:45.572Z,28.90
2018-08-28T11:38:12.636Z,28.50
2018-08-28T11:40:39.815Z,28.40
2018-08-28T11:43:07.000Z,29.20
2018-08-28T11:45:34.179Z,29.80
2018-08-28T11:48:01.364Z,29.10
2018-08-28T11:50:28.548Z,28.90
2018-08-28T11:52:55.724Z,29.10
2018-08-28T11:55:22.924Z,28.40
2018-08-28T11:57:50.095Z,28.40
2018-08-28T12:00:17.275Z,28.90
2018-08-28T12:02:44.457Z,28.50
2018-08-28T12:05:11.819Z,28.90
2018-08-28T12:07:38.870Z,29.20
2018-08-28T12:10:07.176Z,29.20
2018-08-28T12:12:34.352Z,29.80
2018-08-28T12:15:01.582Z,29.10
2018-08-28T12:17:28.748Z,28.60
2018-08-28T12:19:55.975Z,29.30
2018-08-28T12:22:23.196Z,29.40
2018-08-28T12:24:50.372Z,29.30
2018-08-28T12:27:17.553Z,29.60
2018-08-28T12:29:44.778Z,29.90
2018-08-28T12:32:11.924Z,30.70
2018-08-28T12:34:39.268Z,31.30
2018-08-28T12:37:06.530Z,32.10
2018-08-28T12:39:33.678Z,32.20
2018-08-28T12:42:00.884Z,31.70
2018-08-28T12:44:28.064Z,31.10
2018-08-28T12:46:55.255Z,31.40
2018-08-28T12:49:22.591Z,31.60
2018-08-28T12:51:49.769Z,31.70
2018-08-28T12:54:16.951Z,31.60
2018-08-28T12:56:44.163Z,31.90
2018-08-28T12:59:11.371Z,32.30
2018-08-28T13:01:38.599Z,32.80
2018-08-28T13:04:05.809Z,32.80
2018-08-28T13:06:32.998Z,32.90
2018-08-28T13:09:00.191Z,33.70
2018-08-28T13:11:27.377Z,34.00
2018-08-28T13:13:54.631Z,33.70
2018-08-28T13:16:21.824Z,33.10
2018-08-28T13:18:49.001Z,33.10
2018-08-28T13:21:16.163Z,32.70
2018-08-28T13:23:43.348Z,32.80
2018-08-28T13:26:10.601Z,32.10
2018-08-28T13:28:37.684Z,32.00
2018-08-28T13:31:04.892Z,32.60
2018-08-28T13:33:32.075Z,32.80
2018-08-28T13:35:59.296Z,32.80
2018-08-28T13:38:26.608Z,33.20
2018-08-28T13:40:53.799Z,32.70
2018-08-28T13:43:20.983Z,32.90
2018-08-28T13:45:48.152Z,32.30
2018-08-28T13:48:15.367Z,32.70
2018-08-28T13:50:42.539Z,32.70
2018-08-28T13:53:09.713Z,32.40
2018-08-28T13:55:36.881Z,32.70
2018-08-28T13:58:04.079Z,32.40
2018-08-28T14:00:31.265Z,32.50
2018-08-28T14:02:58.435Z,32.80
2018-08-28T14:05:25.604Z,32.80
2018-08-28T14:07:52.775Z,32.50
2018-08-28T14:10:19.947Z,32.50
2018-08-28T14:12:47.150Z,32.50
2018-08-28T14:15:14.396Z,32.60
2018-08-28T14:17:41.608Z,32.80
2018-08-28T14:20:08.824Z,32.20
2018-08-28T14:22:36.132Z,31.50
2018-08-28T14:25:03.242Z,31.20
2018-08-28T14:27:30.445Z,31.00
2018-08-28T14:29:57.635Z,31.20
2018-08-28T14:32:24.836Z,31.10
2018-08-28T14:34:52.020Z,31.60
2018-08-28T14:37:19.215Z,31.30
2018-08-28T14:39:46.391Z,31.10
2018-08-28T14:42:13.595Z,31.20
2018-08-28T14:44:40.764Z,31.40
2018-08-28T14:47:07.939Z,31.30
2018-08-28T14:49:35.131Z,31.40
2018-08-28T14:52:02.323Z,31.70
2018-08-28T14:54:29.807Z,31.70
2018-08-28T14:56:57.376Z,31.30
2018-08-28T14:59:24.554Z,31.20
2018-08-28T15:01:51.730Z,31.20
2018-08-28T15:04:18.915Z,31.10
2018-08-28T15:06:46.127Z,31.20
2018-08-28T15:09:13.286Z,31.10
2018-08-28T15:11:40.480Z,30.90
2018-08-28T15:14:07.666Z,30.50
2018-08-28T15:16:35.175Z,30.00
2018-08-28T15:19:02.336Z,30.00
2018-08-28T15:21:29.553Z,29.60
2018-08-28T15:23:56.762Z,29.70
2018-08-28T15:26:23.940Z,29.90
2018-08-28T15:28:51.118Z,29.70
2018-08-28T15:31:18.309Z,29.60
2018-08-28T15:33:45.475Z,29.60
2018-08-28T15:36:12.687Z,29.40
2018-08-28T15:38:39.896Z,29.20
2018-08-28T15:41:07.024Z,29.00
2018-08-28T15:43:34.272Z,28.70
2018-08-28T15:46:01.697Z,28.70
2018-08-28T15:48:28.857Z,28.40
2018-08-28T15:50:56.070Z,28.20
2018-08-28T15:53:23.168Z,27.60
2018-08-28T15:55:50.317Z,27.60
2018-08-28T15:58:17.497Z,27.70
2018-08-28T16:00:44.673Z,28.00
2018-08-28T16:03:11.816Z,28.00
2018-08-28T16:05:38.963Z,28.00
2018-08-28T16:08:06.119Z,28.10
2018-08-28T16:10:33.285Z,28.30
2018-08-28T16:13:00.453Z,28.30
2018-08-28T16:15:27.618Z,28.20
2018-08-28T16:17:54.837Z,28.10
2018-08-28T16:20:21.947Z,27.90
2018-08-28T16:22:52.615Z,28.00
2018-08-28T16:25:19.733Z,28.10
2018-08-28T16:27:46.824Z,27.90
2018-08-28T16:30:13.938Z,27.70
2018-08-28T16:32:41.118Z,27.50
2018-08-28T16:35:08.353Z,27.00
2018-08-28T16:37:35.434Z,26.70
2018-08-28T16:40:02.570Z,26.40
2018-08-28T16:42:29.678Z,26.20
2018-08-28T16:44:56.785Z,26.00
2018-08-28T16:47:23.902Z,25.70
2018-08-28T16:49:51.086Z,25.50
2018-08-28T16:52:18.238Z,25.40
2018-08-28T16:54:45.385Z,25.20
2018-08-28T16:57:12.497Z,25.00
2018-08-28T16:59:39.597Z,24.90
2018-08-28T17:02:06.749Z,24.70
2018-08-28T17:04:33.873Z,24.70
2018-08-28T17:07:00.990Z,24.60
2018-08-28T17:09:28.101Z,24.60
2018-08-28T17:11:55.221Z,24.50
2018-08-28T17:14:22.354Z,24.40
2018-08-28T17:16:49.477Z,24.40
2018-08-28T17:19:16.660Z,24.40
2018-08-28T17:21:43.730Z,24.30
2018-08-28T17:24:10.878Z,24.20
2018-08-28T17:26:38.022Z,24.20
2018-08-28T17:29:05.385Z,24.10
2018-08-28T17:31:32.501Z,24.00
2018-08-28T17:33:59.650Z,23.80
2018-08-28T17:36:26.781Z,23.40
2018-08-28T17:38:53.889Z,23.10
2018-08-28T17:41:21.072Z,22.80
2018-08-28T17:43:48.273Z,22.60
2018-08-28T17:46:15.410Z,22.30
2018-08-28T17:48:42.584Z,22.10
2018-08-28T17:51:09.638Z,21.80
2018-08-28T17:53:36.779Z,21.60
2018-08-28T17:56:03.898Z,21.40
2018-08-28T17:58:31.042Z,21.20
2018-08-28T18:00:58.180Z,21.10
2018-08-28T18:03:25.318Z,21.00
2018-08-28T18:05:52.446Z,20.90
2018-08-28T18:08:19.595Z,20.80
2018-08-28T18:10:46.786Z,20.70
2018-08-28T18:13:13.969Z,20.70
2018-08-28T18:15:41.105Z,20.60
2018-08-28T18:18:08.254Z,20.50
2018-08-28T18:20:35.365Z,20.40
2018-08-28T18:23:02.489Z,20.20
2018-08-28T18:25:29.609Z,20.10
2018-08-28T18:27:56.929Z,20.00
2018-08-28T18:30:24.131Z,19.90
2018-08-28T18:32:51.262Z,19.90
2018-08-28T18:35:18.662Z,19.80
2018-08-28T18:37:45.774Z,19.80
2018-08-28T18:40:12.958Z,19.70
2018-08-28T18:42:40.093Z,19.70
2018-08-28T18:45:07.445Z,19.60
2018-08-28T18:47:34.554Z,19.50
2018-08-28T18:50:01.915Z,19.50
2018-08-28T18:52:29.106Z,19.40
2018-08-28T18:54:56.230Z,19.40
2018-08-28T18:57:23.397Z,19.40
2018-08-28T18:59:50.522Z,19.40
2018-08-28T19:02:17.694Z,19.50
2018-08-28T19:04:44.821Z,19.40
2018-08-28T19:07:12.110Z,19.40
2018-08-28T19:09:39.238Z,19.40
2018-08-28T19:12:06.363Z,19.40
2018-08-28T19:14:33.472Z,19.30
2018-08-28T19:17:00.953Z,19.30
2018-08-28T19:19:28.099Z,19.20
2018-08-28T19:21:55.234Z,19.20
2018-08-28T19:24:22.353Z,19.10
2018-08-28T19:26:49.470Z,19.10
2018-08-28T19:29:16.594Z,19.10
2018-08-28T19:31:43.764Z,19.00
2018-08-28T19:34:10.872Z,19.00
2018-08-28T19:36:38.005Z,18.90
2018-08-28T19:39:05.178Z,18.90
2018-08-28T19:41:32.317Z,18.80
2018-08-28T19:43:59.462Z,18.80
2018-08-28T19:46:26.561Z,18.70
2018-08-28T19:48:53.719Z,18.70
2018-08-28T19:51:20.854Z,18.70
2018-08-28T19:53:48.032Z,18.80
2018-08-28T19:56:15.093Z,18.80
2018-08-28T19:58:42.201Z,18.80
2018-08-28T20:01:09.318Z,18.80
2018-08-28T20:03:36.441Z,18.80
2018-08-28T20:06:03.602Z,18.80
2018-08-28T20:08:30.737Z,18.90
2018-08-28T20:10:57.865Z,18.90
2018-08-28T20:13:24.974Z,18.90
2018-08-28T20:15:52.105Z,18.80
2018-08-28T20:18:19.227Z,18.80
2018-08-28T20:20:46.419Z,18.80
2018-08-28T20:23:13.488Z,18.90
2018-08-28T20:25:40.617Z,18.80
2018-08-28T20:28:07.729Z,18.80
2018-08-28T20:30:34.840Z,18.70
2018-08-28T20:33:01.966Z,18.70
2018-08-28T20:35:30.903Z,18.70
2018-08-28T20:37:58.478Z,18.60
2018-08-28T20:40:26.405Z,18.60
2018-08-28T20:42:53.633Z,18.60
2018-08-28T20:45:20.789Z,18.60
2018-08-28T20:47:47.969Z,18.70
2018-08-28T20:50:15.102Z,18.70
2018-08-28T20:52:42.225Z,18.70
2018-08-28T20:55:09.377Z,18.80
2018-08-28T20:57:36.517Z,18.80
2018-08-28T21:00:04.577Z,18.70
2018-08-28T21:02:31.682Z,18.70
2018-08-28T21:04:59.809Z,18.60
2018-08-28T21:07:26.957Z,18.50
2018-08-28T21:09:54.090Z,18.50
2018-08-28T21:12:21.277Z,18.50
2018-08-28T21:14:48.610Z,18.50
2018-08-28T21:17:15.745Z,18.60
2018-08-28T21:19:42.857Z,18.60
2018-08-28T21:22:10.158Z,18.60
2018-08-28T21:24:37.283Z,18.60
2018-08-28T21:27:04.470Z,18.70
2018-08-28T21:29:31.661Z,18.70
2018-08-28T21:31:58.826Z,18.70
2018-08-28T21:34:25.900Z,18.60
2018-08-28T21:36:52.998Z,18.60
2018-08-28T21:39:20.390Z,18.50
2018-08-28T21:41:47.489Z,18.40
2018-08-28T21:44:14.574Z,18.40
2018-08-28T21:46:41.906Z,18.40
2018-08-28T21:49:09.129Z,18.40
2018-08-28T21:51:36.299Z,18.40
2018-08-28T21:54:03.481Z,18.40
2018-08-28T21:56:30.582Z,18.40
2018-08-28T21:58:57.791Z,18.40
2018-08-28T22:01:24.905Z,18.40
2018-08-28T22:03:52.030Z,18.40
2018-08-28T22:06:24.853Z,18.40
2018-08-28T22:08:51.946Z,18.30
2018-08-28T22:11:19.041Z,18.30
2018-08-28T22:13:46.138Z,18.30
2018-08-28T22:16:13.228Z,18.20
2018-08-28T22:18:40.325Z,18.20
2018-08-28T22:21:07.442Z,18.20
2018-08-28T22:23:34.637Z,18.20
2018-08-28T22:26:01.793Z,18.20
2018-08-28T22:28:28.897Z,18.10
2018-08-28T22:30:56.005Z,18.20
2018-08-28T22:33:23.118Z,18.20
2018-08-28T22:35:50.229Z,18.20
2018-08-28T22:38:17.369Z,18.20
2018-08-28T22:40:44.462Z,18.20
2018-08-28T22:43:11.661Z,18.20
2018-08-28T22:45:38.745Z,18.20
2018-08-28T22:48:06.144Z,18.20
2018-08-28T22:50:33.409Z,18.20
2018-08-28T22:53:00.510Z,18.20
2018-08-28T22:55:27.590Z,18.10
2018-08-28T22:57:54.693Z,18.10
2018-08-28T23:00:22.846Z,18.20
2018-08-28T23:02:51.322Z,18.10
2018-08-28T23:05:19.081Z,18.10
2018-08-28T23:07:46.190Z,18.20
2018-08-28T23:10:13.322Z,18.20
2018-08-28T23:12:40.421Z,18.20
2018-08-28T23:15:07.517Z,18.20
2018-08-28T23:17:34.613Z,18.20
2018-08-28T23:20:01.718Z,18.10
2018-08-28T23:22:28.817Z,18.10
2018-08-28T23:24:55.912Z,18.10
2018-08-28T23:27:22.993Z,18.10
2018-08-28T23:29:50.069Z,18.00
2018-08-28T23:32:17.173Z,18.00
2018-08-28T23:34:44.269Z,18.10
2018-08-28T23:37:11.606Z,18.00
2018-08-28T23:39:38.725Z,18.00
2018-08-28T23:42:05.617Z,18.00
2018-08-28T23:44:32.733Z,18.00
2018-08-28T23:46:59.833Z,18.10
2018-08-28T23:49:26.932Z,18.00
2018-08-28T23:51:54.017Z,18.00
2018-08-28T23:54:21.113Z,18.00
2018-08-28T23:56:48.205Z,18.10
2018-08-28T23:59:15.313Z,18.10
